ミッドウェー島 の空港の天気 - METARとTAF

ヘンダーソン基地 ( PMDY / MDY ) - 合衆国領有小離島 ミッドウェー島
飛行場実況気象(Metar)
観測時間10/28 06:56 SST (10/28 17:56 UTC)
風向・風速北東 5m/s
視程9650m
天気現象煙霧
全天の8割程度の雲 雲底高度 730m
気温21.7℃
湿度81%
気圧1021.6hPa
METARPMDY 281756Z AUTO 05009KT 6SM HZ BKN024 22/18 A3017 RMK AO2 SLP216 60003 T02170183 10222 20211 53002
過去の天気等 Google飛行場航空写真 Wunderground天気予報

過去48時間のMETAR

飛行場予報(TAF)
発表時間: 10/28 06:23 SST (10/28 17:23 UTC)
予報対象時間: 28日7時 SST ~ 29日7時 SST
風向・風速北東 2m/s
視程10km以上
全天の8割程度の雲 雲底高度 760m
28日11時 SST から
風向・風速北北東 4m/s
視程10km以上
少しの雲 雲底高度 460m
全天の4割程度の雲 雲底高度 910m
全天の8割程度の雲 雲底高度 1070m
PMDY 281723Z 2818/2918 04004KT P6SM BKN025
FM282200 02007KT P6SM FEW015 SCT030 BKN035